KAC301 OKKK-VABB
Flight info
| Callsign | KAC301 |
|---|---|
| Flight time | N/A |
| Altitude | 34000 |
| Route | OKKK/33L N0455F390 SESR4F SESRU M677 OBNET DCT TONVO P307 VAXIM L301 KARKU M638 EXOLU POKO2A VABB/27 |
| Aircraft | A321/M-SDFGHIRWY/C |
Departure
| Time | 2026-05-05 18:44 |
|---|---|
| Airport | Kuwait International Airport (OKKK) |
Arrival
| Time | N/A |
|---|---|
| Airport | Chhatrapati Shivaji Maharaj International Airport (VABB) |
| Time | Latitude | Longitude | Altitude | Speed | Heading |
|---|---|---|---|---|---|
| 2026-05-05 18:27 | 29.22987 | 47.95911 | 128 ft | 0 kts | 243° |
| 2026-05-05 18:36 | 29.22991 | 47.95920 | 156 ft | 3 kts | 243° |
| 2026-05-05 18:36 | 29.22999 | 47.95939 | 156 ft | 3 kts | 243° |
| 2026-05-05 18:36 | 29.23008 | 47.95958 | 156 ft | 3 kts | 243° |
| 2026-05-05 18:36 | 29.23016 | 47.95978 | 156 ft | 3 kts | 243° |
| 2026-05-05 18:37 | 29.23027 | 47.95993 | 156 ft | 3 kts | 186° |
| 2026-05-05 18:37 | 29.23037 | 47.95993 | 155 ft | 0 kts | 155° |
| 2026-05-05 18:40 | 29.23034 | 47.95994 | 156 ft | 1 kts | 155° |
| 2026-05-05 18:40 | 29.23027 | 47.95998 | 156 ft | 1 kts | 155° |
| 2026-05-05 18:40 | 29.23018 | 47.96003 | 156 ft | 2 kts | 155° |
| 2026-05-05 18:41 | 29.23009 | 47.96007 | 156 ft | 5 kts | 155° |
| 2026-05-05 18:41 | 29.22969 | 47.96032 | 156 ft | 12 kts | 146° |
| 2026-05-05 18:41 | 29.22839 | 47.96111 | 158 ft | 29 kts | 144° |
| 2026-05-05 18:41 | 29.22795 | 47.96302 | 159 ft | 25 kts | 62° |
| 2026-05-05 18:42 | 29.22894 | 47.96463 | 158 ft | 25 kts | 41° |
| 2026-05-05 18:42 | 29.23030 | 47.96527 | 158 ft | 12 kts | 46° |
| 2026-05-05 18:42 | 29.23067 | 47.96612 | 158 ft | 13 kts | 65° |
| 2026-05-05 18:42 | 29.23077 | 47.96651 | 158 ft | 5 kts | 89° |
| 2026-05-05 18:43 | 29.23054 | 47.96685 | 159 ft | 7 kts | 151° |
| 2026-05-05 18:43 | 29.22854 | 47.96789 | 160 ft | 74 kts | 155° |
| 2026-05-05 18:43 | 29.22106 | 47.97189 | 170 ft | 164 kts | 156° |
| 2026-05-05 18:43 | 29.20912 | 47.97820 | 655 ft | 200 kts | 154° |
| 2026-05-05 18:44 | 29.20082 | 47.98244 | 1064 ft | 216 kts | 155° |